sensor_id;sensor_type;location;lat;lon;timestamp;temperature;humidity
5130;DHT22;2583;50.946;6.954;2022-08-19T00:02:01;21.30;99.90
5130;DHT22;2583;50.946;6.954;2022-08-19T00:04:31;21.30;99.90
5130;DHT22;2583;50.946;6.954;2022-08-19T00:07:00;21.30;99.90
5130;DHT22;2583;50.946;6.954;2022-08-19T00:09:27;21.20;99.90
5130;DHT22;2583;50.946;6.954;2022-08-19T00:11:56;21.20;99.90
5130;DHT22;2583;50.946;6.954;2022-08-19T00:14:24;21.30;99.90
5130;DHT22;2583;50.946;6.954;2022-08-19T00:16:51;21.20;99.90
5130;DHT22;2583;50.946;6.954;2022-08-19T00:19:21;21.20;99.90
5130;DHT22;2583;50.946;6.954;2022-08-19T00:21:48;21.20;99.90
5130;DHT22;2583;50.946;6.954;2022-08-19T00:24:16;21.10;99.90
5130;DHT22;2583;50.946;6.954;2022-08-19T00:26:43;21.10;99.90
5130;DHT22;2583;50.946;6.954;2022-08-19T00:29:12;21.10;99.90
5130;DHT22;2583;50.946;6.954;2022-08-19T00:31:40;21.10;99.90
5130;DHT22;2583;50.946;6.954;2022-08-19T00:34:08;21.00;99.90
5130;DHT22;2583;50.946;6.954;2022-08-19T00:36:35;21.00;99.90
5130;DHT22;2583;50.946;6.954;2022-08-19T00:39:03;21.00;99.90
5130;DHT22;2583;50.946;6.954;2022-08-19T00:41:30;21.00;99.90
5130;DHT22;2583;50.946;6.954;2022-08-19T00:46:37;21.00;99.90
5130;DHT22;2583;50.946;6.954;2022-08-19T00:49:17;20.90;99.90
5130;DHT22;2583;50.946;6.954;2022-08-19T00:51:50;21.00;99.90
5130;DHT22;2583;50.946;6.954;2022-08-19T00:54:17;21.00;99.90
5130;DHT22;2583;50.946;6.954;2022-08-19T00:56:53;21.00;99.90
5130;DHT22;2583;50.946;6.954;2022-08-19T00:59:21;20.90;99.90
5130;DHT22;2583;50.946;6.954;2022-08-19T01:02:09;20.90;99.90
5130;DHT22;2583;50.946;6.954;2022-08-19T01:04:35;20.90;99.90
5130;DHT22;2583;50.946;6.954;2022-08-19T01:07:02;20.90;99.90
5130;DHT22;2583;50.946;6.954;2022-08-19T01:09:30;20.90;99.90
5130;DHT22;2583;50.946;6.954;2022-08-19T01:11:57;20.90;99.90
5130;DHT22;2583;50.946;6.954;2022-08-19T01:14:24;20.90;99.90
5130;DHT22;2583;50.946;6.954;2022-08-19T01:16:53;20.80;99.90
5130;DHT22;2583;50.946;6.954;2022-08-19T01:19:31;20.80;99.90
5130;DHT22;2583;50.946;6.954;2022-08-19T01:24:58;20.70;99.90
5130;DHT22;2583;50.946;6.954;2022-08-19T01:27:26;20.60;99.90
5130;DHT22;2583;50.946;6.954;2022-08-19T01:30:11;20.60;99.90
5130;DHT22;2583;50.946;6.954;2022-08-19T01:32:40;20.60;99.90
5130;DHT22;2583;50.946;6.954;2022-08-19T01:35:07;20.60;99.90
5130;DHT22;2583;50.946;6.954;2022-08-19T01:37:52;20.60;99.90
5130;DHT22;2583;50.946;6.954;2022-08-19T01:40:22;20.60;99.90
5130;DHT22;2583;50.946;6.954;2022-08-19T01:42:50;20.60;99.90
5130;DHT22;2583;50.946;6.954;2022-08-19T01:45:19;20.50;99.90
5130;DHT22;2583;50.946;6.954;2022-08-19T01:47:46;20.50;99.90
5130;DHT22;2583;50.946;6.954;2022-08-19T01:50:29;20.50;99.90
5130;DHT22;2583;50.946;6.954;2022-08-19T01:52:57;20.50;99.90
5130;DHT22;2583;50.946;6.954;2022-08-19T01:55:35;20.50;99.90
5130;DHT22;2583;50.946;6.954;2022-08-19T01:58:16;20.50;99.90
5130;DHT22;2583;50.946;6.954;2022-08-19T02:00:45;20.50;99.90
5130;DHT22;2583;50.946;6.954;2022-08-19T02:03:12;20.40;99.90
5130;DHT22;2583;50.946;6.954;2022-08-19T02:05:40;20.40;99.90
5130;DHT22;2583;50.946;6.954;2022-08-19T02:08:08;20.40;99.90
5130;DHT22;2583;50.946;6.954;2022-08-19T02:10:41;20.40;99.90
5130;DHT22;2583;50.946;6.954;2022-08-19T02:13:10;20.40;99.90
5130;DHT22;2583;50.946;6.954;2022-08-19T02:15:38;20.40;99.90
5130;DHT22;2583;50.946;6.954;2022-08-19T02:18:05;20.30;99.90
5130;DHT22;2583;50.946;6.954;2022-08-19T02:20:32;20.30;99.90
5130;DHT22;2583;50.946;6.954;2022-08-19T02:22:58;20.30;99.90
5130;DHT22;2583;50.946;6.954;2022-08-19T02:25:26;20.30;99.90
5130;DHT22;2583;50.946;6.954;2022-08-19T02:27:53;20.20;99.90
5130;DHT22;2583;50.946;6.954;2022-08-19T02:30:21;20.20;99.90
5130;DHT22;2583;50.946;6.954;2022-08-19T02:32:47;20.20;99.90
5130;DHT22;2583;50.946;6.954;2022-08-19T02:35:15;20.20;99.90
5130;DHT22;2583;50.946;6.954;2022-08-19T02:37:42;20.20;99.90
5130;DHT22;2583;50.946;6.954;2022-08-19T02:40:29;20.10;99.90
5130;DHT22;2583;50.946;6.954;2022-08-19T02:43:06;20.20;99.90
5130;DHT22;2583;50.946;6.954;2022-08-19T02:45:38;20.10;99.90
5130;DHT22;2583;50.946;6.954;2022-08-19T02:48:07;20.10;99.90
5130;DHT22;2583;50.946;6.954;2022-08-19T02:50:48;20.10;99.90
5130;DHT22;2583;50.946;6.954;2022-08-19T02:53:26;20.10;99.90
5130;DHT22;2583;50.946;6.954;2022-08-19T02:55:54;20.20;99.90
5130;DHT22;2583;50.946;6.954;2022-08-19T02:58:21;20.10;99.90
5130;DHT22;2583;50.946;6.954;2022-08-19T03:00:53;20.10;99.90
5130;DHT22;2583;50.946;6.954;2022-08-19T03:03:20;20.10;99.90
5130;DHT22;2583;50.946;6.954;2022-08-19T03:05:47;20.10;99.90
5130;DHT22;2583;50.946;6.954;2022-08-19T03:08:23;20.10;99.90
5130;DHT22;2583;50.946;6.954;2022-08-19T03:10:50;20.00;99.90
5130;DHT22;2583;50.946;6.954;2022-08-19T03:13:19;20.00;99.90
5130;DHT22;2583;50.946;6.954;2022-08-19T03:15:47;20.00;99.90
5130;DHT22;2583;50.946;6.954;2022-08-19T03:18:14;20.00;99.90
5130;DHT22;2583;50.946;6.954;2022-08-19T03:20:48;20.00;99.90
5130;DHT22;2583;50.946;6.954;2022-08-19T03:23:16;20.00;99.90
5130;DHT22;2583;50.946;6.954;2022-08-19T03:25:47;19.90;99.90
5130;DHT22;2583;50.946;6.954;2022-08-19T03:28:34;19.90;99.90
5130;DHT22;2583;50.946;6.954;2022-08-19T03:31:03;19.90;99.90
5130;DHT22;2583;50.946;6.954;2022-08-19T03:33:51;19.90;99.90
5130;DHT22;2583;50.946;6.954;2022-08-19T03:36:22;19.90;99.90
5130;DHT22;2583;50.946;6.954;2022-08-19T03:38:52;19.90;99.90
5130;DHT22;2583;50.946;6.954;2022-08-19T03:41:31;19.80;99.90
5130;DHT22;2583;50.946;6.954;2022-08-19T03:44:21;19.90;99.90
5130;DHT22;2583;50.946;6.954;2022-08-19T03:46:50;19.80;99.90
5130;DHT22;2583;50.946;6.954;2022-08-19T03:49:19;19.80;99.90
5130;DHT22;2583;50.946;6.954;2022-08-19T03:51:48;19.80;99.90
5130;DHT22;2583;50.946;6.954;2022-08-19T03:54:18;19.80;99.90
5130;DHT22;2583;50.946;6.954;2022-08-19T03:56:47;19.80;99.90
5130;DHT22;2583;50.946;6.954;2022-08-19T03:59:27;19.80;99.90
5130;DHT22;2583;50.946;6.954;2022-08-19T04:01:56;19.80;99.90
5130;DHT22;2583;50.946;6.954;2022-08-19T04:04:24;19.80;99.90
5130;DHT22;2583;50.946;6.954;2022-08-19T04:06:55;19.80;99.90
5130;DHT22;2583;50.946;6.954;2022-08-19T04:09:23;19.80;99.90
5130;DHT22;2583;50.946;6.954;2022-08-19T04:11:53;19.80;99.90
5130;DHT22;2583;50.946;6.954;2022-08-19T04:14:26;19.80;99.90
5130;DHT22;2583;50.946;6.954;2022-08-19T04:16:57;19.80;99.90
5130;DHT22;2583;50.946;6.954;2022-08-19T04:19:25;19.80;99.90
5130;DHT22;2583;50.946;6.954;2022-08-19T04:21:53;19.90;99.90
5130;DHT22;2583;50.946;6.954;2022-08-19T04:24:21;19.90;99.90
5130;DHT22;2583;50.946;6.954;2022-08-19T04:26:49;19.90;99.90
5130;DHT22;2583;50.946;6.954;2022-08-19T04:29:22;19.80;99.90
5130;DHT22;2583;50.946;6.954;2022-08-19T04:31:52;19.80;99.90
5130;DHT22;2583;50.946;6.954;2022-08-19T04:34:22;19.80;99.90
5130;DHT22;2583;50.946;6.954;2022-08-19T04:36:52;19.90;99.90
5130;DHT22;2583;50.946;6.954;2022-08-19T04:39:23;19.90;99.90
5130;DHT22;2583;50.946;6.954;2022-08-19T04:42:11;19.90;99.90
5130;DHT22;2583;50.946;6.954;2022-08-19T04:44:57;19.80;99.90
5130;DHT22;2583;50.946;6.954;2022-08-19T04:47:25;19.80;99.90
5130;DHT22;2583;50.946;6.954;2022-08-19T04:50:11;19.80;99.90
5130;DHT22;2583;50.946;6.954;2022-08-19T04:52:39;19.90;99.90
5130;DHT22;2583;50.946;6.954;2022-08-19T04:55:14;19.90;99.90
5130;DHT22;2583;50.946;6.954;2022-08-19T04:57:41;19.90;99.90
5130;DHT22;2583;50.946;6.954;2022-08-19T05:00:09;20.00;99.90
5130;DHT22;2583;50.946;6.954;2022-08-19T05:02:36;20.00;99.90
5130;DHT22;2583;50.946;6.954;2022-08-19T05:05:03;20.00;99.90
5130;DHT22;2583;50.946;6.954;2022-08-19T05:07:30;20.00;99.90
5130;DHT22;2583;50.946;6.954;2022-08-19T05:09:57;20.00;99.90
5130;DHT22;2583;50.946;6.954;2022-08-19T05:12:25;20.00;99.90
5130;DHT22;2583;50.946;6.954;2022-08-19T05:14:56;20.00;99.90
5130;DHT22;2583;50.946;6.954;2022-08-19T05:17:27;20.00;99.90
5130;DHT22;2583;50.946;6.954;2022-08-19T05:19:58;20.10;99.90
5130;DHT22;2583;50.946;6.954;2022-08-19T05:22:46;20.10;99.90
5130;DHT22;2583;50.946;6.954;2022-08-19T05:25:16;20.10;99.90
5130;DHT22;2583;50.946;6.954;2022-08-19T05:27:45;20.20;99.90
5130;DHT22;2583;50.946;6.954;2022-08-19T05:30:12;20.20;99.90
5130;DHT22;2583;50.946;6.954;2022-08-19T05:32:40;20.20;99.90
5130;DHT22;2583;50.946;6.954;2022-08-19T05:35:07;20.30;99.90
5130;DHT22;2583;50.946;6.954;2022-08-19T05:37:34;20.30;99.90
5130;DHT22;2583;50.946;6.954;2022-08-19T05:40:01;20.30;99.90
5130;DHT22;2583;50.946;6.954;2022-08-19T05:42:28;20.30;99.90
5130;DHT22;2583;50.946;6.954;2022-08-19T05:44:57;20.30;99.90
5130;DHT22;2583;50.946;6.954;2022-08-19T05:47:23;20.30;99.90
5130;DHT22;2583;50.946;6.954;2022-08-19T05:49:50;20.30;99.90
5130;DHT22;2583;50.946;6.954;2022-08-19T05:52:17;20.30;99.90
5130;DHT22;2583;50.946;6.954;2022-08-19T05:54:50;20.20;99.90
5130;DHT22;2583;50.946;6.954;2022-08-19T05:57:19;20.20;99.90
5130;DHT22;2583;50.946;6.954;2022-08-19T05:59:46;20.10;99.90
5130;DHT22;2583;50.946;6.954;2022-08-19T06:02:19;20.10;99.90
5130;DHT22;2583;50.946;6.954;2022-08-19T06:04:46;20.10;99.90
5130;DHT22;2583;50.946;6.954;2022-08-19T06:07:13;20.10;99.90
5130;DHT22;2583;50.946;6.954;2022-08-19T06:09:40;20.10;99.90
5130;DHT22;2583;50.946;6.954;2022-08-19T06:12:26;20.20;99.90
5130;DHT22;2583;50.946;6.954;2022-08-19T06:14:57;20.20;99.90
5130;DHT22;2583;50.946;6.954;2022-08-19T06:17:27;20.30;99.90
5130;DHT22;2583;50.946;6.954;2022-08-19T06:19:53;20.30;99.90
5130;DHT22;2583;50.946;6.954;2022-08-19T06:22:20;20.30;99.90
5130;DHT22;2583;50.946;6.954;2022-08-19T06:24:47;20.30;99.90
5130;DHT22;2583;50.946;6.954;2022-08-19T06:27:14;20.20;99.90
5130;DHT22;2583;50.946;6.954;2022-08-19T06:29:42;20.20;99.90
5130;DHT22;2583;50.946;6.954;2022-08-19T06:32:09;20.30;99.90
5130;DHT22;2583;50.946;6.954;2022-08-19T06:34:36;20.30;99.90
5130;DHT22;2583;50.946;6.954;2022-08-19T06:37:04;20.30;99.90
5130;DHT22;2583;50.946;6.954;2022-08-19T06:39:35;20.30;99.90
5130;DHT22;2583;50.946;6.954;2022-08-19T06:42:03;20.30;99.90
5130;DHT22;2583;50.946;6.954;2022-08-19T06:44:35;20.30;99.90
5130;DHT22;2583;50.946;6.954;2022-08-19T06:47:11;20.40;99.90
5130;DHT22;2583;50.946;6.954;2022-08-19T06:49:41;20.40;99.90
5130;DHT22;2583;50.946;6.954;2022-08-19T06:52:10;20.40;99.90
5130;DHT22;2583;50.946;6.954;2022-08-19T06:54:40;20.50;99.90
5130;DHT22;2583;50.946;6.954;2022-08-19T06:57:23;20.60;99.90
5130;DHT22;2583;50.946;6.954;2022-08-19T06:59:51;20.70;99.90
5130;DHT22;2583;50.946;6.954;2022-08-19T07:02:18;20.80;99.90
5130;DHT22;2583;50.946;6.954;2022-08-19T07:04:46;20.80;99.90
5130;DHT22;2583;50.946;6.954;2022-08-19T07:07:14;20.90;99.90
5130;DHT22;2583;50.946;6.954;2022-08-19T07:09:47;21.00;99.90
5130;DHT22;2583;50.946;6.954;2022-08-19T07:12:29;21.10;99.90
5130;DHT22;2583;50.946;6.954;2022-08-19T07:15:05;21.10;99.90
5130;DHT22;2583;50.946;6.954;2022-08-19T07:17:35;21.20;99.90
5130;DHT22;2583;50.946;6.954;2022-08-19T07:20:07;21.20;99.90
5130;DHT22;2583;50.946;6.954;2022-08-19T07:22:36;21.20;99.90
5130;DHT22;2583;50.946;6.954;2022-08-19T07:25:06;21.30;99.90
5130;DHT22;2583;50.946;6.954;2022-08-19T07:27:33;21.40;99.90
5130;DHT22;2583;50.946;6.954;2022-08-19T07:30:01;21.50;99.90
5130;DHT22;2583;50.946;6.954;2022-08-19T07:32:28;21.40;99.90
5130;DHT22;2583;50.946;6.954;2022-08-19T07:34:55;21.50;99.90
5130;DHT22;2583;50.946;6.954;2022-08-19T07:37:24;21.60;99.90
5130;DHT22;2583;50.946;6.954;2022-08-19T07:39:58;21.60;99.90
5130;DHT22;2583;50.946;6.954;2022-08-19T07:42:26;21.60;99.90
5130;DHT22;2583;50.946;6.954;2022-08-19T07:44:53;21.60;99.90
5130;DHT22;2583;50.946;6.954;2022-08-19T07:47:19;21.50;99.90
5130;DHT22;2583;50.946;6.954;2022-08-19T07:50:09;21.60;99.90
5130;DHT22;2583;50.946;6.954;2022-08-19T07:52:38;21.60;99.90
5130;DHT22;2583;50.946;6.954;2022-08-19T07:55:09;21.60;99.90
5130;DHT22;2583;50.946;6.954;2022-08-19T07:57:56;21.60;99.90
5130;DHT22;2583;50.946;6.954;2022-08-19T08:00:23;21.50;99.90
5130;DHT22;2583;50.946;6.954;2022-08-19T08:02:51;21.50;99.90
5130;DHT22;2583;50.946;6.954;2022-08-19T08:05:22;21.60;99.90
5130;DHT22;2583;50.946;6.954;2022-08-19T08:08:10;21.70;99.90
5130;DHT22;2583;50.946;6.954;2022-08-19T08:10:56;21.70;99.90
5130;DHT22;2583;50.946;6.954;2022-08-19T08:13:24;21.70;99.90
5130;DHT22;2583;50.946;6.954;2022-08-19T08:15:52;21.80;99.90
5130;DHT22;2583;50.946;6.954;2022-08-19T08:18:21;21.80;99.90
5130;DHT22;2583;50.946;6.954;2022-08-19T08:20:54;21.90;99.90
5130;DHT22;2583;50.946;6.954;2022-08-19T08:23:22;21.90;99.90
5130;DHT22;2583;50.946;6.954;2022-08-19T08:25:49;22.00;99.90
5130;DHT22;2583;50.946;6.954;2022-08-19T08:28:17;22.10;99.90
5130;DHT22;2583;50.946;6.954;2022-08-19T08:30:46;22.20;99.90
5130;DHT22;2583;50.946;6.954;2022-08-19T08:33:18;22.30;99.90
5130;DHT22;2583;50.946;6.954;2022-08-19T08:36:07;22.50;99.90
5130;DHT22;2583;50.946;6.954;2022-08-19T08:38:35;22.70;99.90
5130;DHT22;2583;50.946;6.954;2022-08-19T08:41:26;22.70;99.90
5130;DHT22;2583;50.946;6.954;2022-08-19T08:43:55;22.80;99.90
5130;DHT22;2583;50.946;6.954;2022-08-19T08:46:38;23.00;99.90
5130;DHT22;2583;50.946;6.954;2022-08-19T08:51:46;23.30;99.90
5130;DHT22;2583;50.946;6.954;2022-08-19T08:54:36;23.30;99.90
5130;DHT22;2583;50.946;6.954;2022-08-19T08:57:10;23.50;99.90
5130;DHT22;2583;50.946;6.954;2022-08-19T08:59:41;23.70;99.90
5130;DHT22;2583;50.946;6.954;2022-08-19T09:02:08;23.70;99.90
5130;DHT22;2583;50.946;6.954;2022-08-19T09:04:36;23.80;99.90
5130;DHT22;2583;50.946;6.954;2022-08-19T09:10:34;24.10;99.90
5130;DHT22;2583;50.946;6.954;2022-08-19T09:13:20;24.40;99.90
5130;DHT22;2583;50.946;6.954;2022-08-19T09:16:02;24.60;99.80
5130;DHT22;2583;50.946;6.954;2022-08-19T09:18:45;24.70;98.10
5130;DHT22;2583;50.946;6.954;2022-08-19T09:21:14;24.90;96.80
5130;DHT22;2583;50.946;6.954;2022-08-19T09:23:42;25.00;96.90
5130;DHT22;2583;50.946;6.954;2022-08-19T09:26:11;25.00;96.80
5130;DHT22;2583;50.946;6.954;2022-08-19T09:28:44;25.10;95.40
5130;DHT22;2583;50.946;6.954;2022-08-19T09:31:18;25.20;92.90
5130;DHT22;2583;50.946;6.954;2022-08-19T09:33:45;25.20;90.90
5130;DHT22;2583;50.946;6.954;2022-08-19T09:36:14;25.30;92.40
5130;DHT22;2583;50.946;6.954;2022-08-19T09:39:00;25.30;89.00
5130;DHT22;2583;50.946;6.954;2022-08-19T09:41:27;25.30;84.00
5130;DHT22;2583;50.946;6.954;2022-08-19T09:43:57;25.40;90.00
5130;DHT22;2583;50.946;6.954;2022-08-19T09:46:28;25.40;84.70
5130;DHT22;2583;50.946;6.954;2022-08-19T09:48:58;25.30;81.00
5130;DHT22;2583;50.946;6.954;2022-08-19T09:51:32;25.30;82.30
5130;DHT22;2583;50.946;6.954;2022-08-19T09:54:02;25.30;79.50
5130;DHT22;2583;50.946;6.954;2022-08-19T09:56:31;25.40;80.60
5130;DHT22;2583;50.946;6.954;2022-08-19T09:59:01;25.40;77.80
5130;DHT22;2583;50.946;6.954;2022-08-19T10:01:30;25.40;77.00
5130;DHT22;2583;50.946;6.954;2022-08-19T10:03:58;25.30;77.30
5130;DHT22;2583;50.946;6.954;2022-08-19T10:06:28;25.40;72.10
5130;DHT22;2583;50.946;6.954;2022-08-19T10:09:13;25.60;70.60
5130;DHT22;2583;50.946;6.954;2022-08-19T10:11:42;25.80;62.30
5130;DHT22;2583;50.946;6.954;2022-08-19T10:14:18;25.80;59.40
5130;DHT22;2583;50.946;6.954;2022-08-19T10:16:49;25.90;56.80
5130;DHT22;2583;50.946;6.954;2022-08-19T10:19:17;26.00;55.90
5130;DHT22;2583;50.946;6.954;2022-08-19T10:21:52;26.00;53.80
5130;DHT22;2583;50.946;6.954;2022-08-19T10:24:21;25.80;55.50
5130;DHT22;2583;50.946;6.954;2022-08-19T10:26:51;26.10;55.10
5130;DHT22;2583;50.946;6.954;2022-08-19T10:29:25;26.20;56.80
5130;DHT22;2583;50.946;6.954;2022-08-19T10:32:03;26.40;55.30
5130;DHT22;2583;50.946;6.954;2022-08-19T10:34:36;26.50;54.90
5130;DHT22;2583;50.946;6.954;2022-08-19T10:37:13;26.70;54.30
5130;DHT22;2583;50.946;6.954;2022-08-19T10:39:45;26.90;52.60
5130;DHT22;2583;50.946;6.954;2022-08-19T10:42:15;26.80;50.80
5130;DHT22;2583;50.946;6.954;2022-08-19T10:44:43;27.00;51.70
5130;DHT22;2583;50.946;6.954;2022-08-19T10:47:10;27.00;50.70
5130;DHT22;2583;50.946;6.954;2022-08-19T10:49:53;26.80;52.10
5130;DHT22;2583;50.946;6.954;2022-08-19T10:52:45;26.70;51.80
5130;DHT22;2583;50.946;6.954;2022-08-19T10:55:22;26.80;51.70
5130;DHT22;2583;50.946;6.954;2022-08-19T10:58:18;26.60;52.50
5130;DHT22;2583;50.946;6.954;2022-08-19T11:00:54;26.50;52.60
5130;DHT22;2583;50.946;6.954;2022-08-19T11:03:21;26.40;53.30
5130;DHT22;2583;50.946;6.954;2022-08-19T11:06:00;26.40;53.70
5130;DHT22;2583;50.946;6.954;2022-08-19T11:08:27;26.50;53.40
5130;DHT22;2583;50.946;6.954;2022-08-19T11:10:54;26.60;54.30
5130;DHT22;2583;50.946;6.954;2022-08-19T11:13:24;26.70;53.50
5130;DHT22;2583;50.946;6.954;2022-08-19T11:16:21;26.70;53.00
5130;DHT22;2583;50.946;6.954;2022-08-19T11:18:52;27.00;51.70
5130;DHT22;2583;50.946;6.954;2022-08-19T11:21:28;27.00;50.90
5130;DHT22;2583;50.946;6.954;2022-08-19T11:24:00;27.10;48.00
5130;DHT22;2583;50.946;6.954;2022-08-19T11:26:29;27.10;48.90
5130;DHT22;2583;50.946;6.954;2022-08-19T11:28:58;27.20;47.90
5130;DHT22;2583;50.946;6.954;2022-08-19T11:31:27;27.30;46.00
5130;DHT22;2583;50.946;6.954;2022-08-19T11:33:59;27.10;45.20
5130;DHT22;2583;50.946;6.954;2022-08-19T11:36:27;27.10;45.10
5130;DHT22;2583;50.946;6.954;2022-08-19T11:38:54;26.80;45.90
5130;DHT22;2583;50.946;6.954;2022-08-19T11:41:22;26.70;46.20
5130;DHT22;2583;50.946;6.954;2022-08-19T11:43:51;26.70;46.80
5130;DHT22;2583;50.946;6.954;2022-08-19T11:46:19;26.70;45.70
5130;DHT22;2583;50.946;6.954;2022-08-19T11:48:46;26.80;46.50
5130;DHT22;2583;50.946;6.954;2022-08-19T11:51:17;26.90;47.90
5130;DHT22;2583;50.946;6.954;2022-08-19T11:53:45;26.70;45.10
5130;DHT22;2583;50.946;6.954;2022-08-19T11:56:13;26.70;45.40
5130;DHT22;2583;50.946;6.954;2022-08-19T11:58:40;26.80;44.50
5130;DHT22;2583;50.946;6.954;2022-08-19T12:01:15;26.80;44.00
5130;DHT22;2583;50.946;6.954;2022-08-19T12:03:43;26.80;43.60
5130;DHT22;2583;50.946;6.954;2022-08-19T12:06:14;26.40;43.90
5130;DHT22;2583;50.946;6.954;2022-08-19T12:08:42;26.50;44.90
5130;DHT22;2583;50.946;6.954;2022-08-19T12:11:11;27.00;44.10
5130;DHT22;2583;50.946;6.954;2022-08-19T12:13:39;27.30;41.40
5130;DHT22;2583;50.946;6.954;2022-08-19T12:16:15;27.40;40.80
5130;DHT22;2583;50.946;6.954;2022-08-19T12:18:43;27.20;40.80
5130;DHT22;2583;50.946;6.954;2022-08-19T12:21:14;27.10;41.40
5130;DHT22;2583;50.946;6.954;2022-08-19T12:23:42;27.30;41.20
5130;DHT22;2583;50.946;6.954;2022-08-19T12:26:10;27.50;39.20
5130;DHT22;2583;50.946;6.954;2022-08-19T12:28:38;27.70;39.00
5130;DHT22;2583;50.946;6.954;2022-08-19T12:31:05;27.60;37.30
5130;DHT22;2583;50.946;6.954;2022-08-19T12:33:32;27.70;37.00
5130;DHT22;2583;50.946;6.954;2022-08-19T12:36:04;28.00;36.80
5130;DHT22;2583;50.946;6.954;2022-08-19T12:38:32;27.90;35.20
5130;DHT22;2583;50.946;6.954;2022-08-19T12:40:59;28.20;34.90
5130;DHT22;2583;50.946;6.954;2022-08-19T12:43:26;28.40;34.60
5130;DHT22;2583;50.946;6.954;2022-08-19T12:45:53;28.20;35.70
5130;DHT22;2583;50.946;6.954;2022-08-19T12:48:22;27.90;36.20
5130;DHT22;2583;50.946;6.954;2022-08-19T12:51:00;27.50;36.10
5130;DHT22;2583;50.946;6.954;2022-08-19T12:53:28;27.60;36.10
5130;DHT22;2583;50.946;6.954;2022-08-19T12:55:56;28.20;36.60
5130;DHT22;2583;50.946;6.954;2022-08-19T12:58:23;28.60;33.50
5130;DHT22;2583;50.946;6.954;2022-08-19T13:00:53;29.30;32.60
5130;DHT22;2583;50.946;6.954;2022-08-19T13:03:20;29.80;30.80
5130;DHT22;2583;50.946;6.954;2022-08-19T13:05:50;30.10;29.60
5130;DHT22;2583;50.946;6.954;2022-08-19T13:08:17;30.40;28.70
5130;DHT22;2583;50.946;6.954;2022-08-19T13:10:44;30.40;28.20
5130;DHT22;2583;50.946;6.954;2022-08-19T13:13:11;30.60;27.40
5130;DHT22;2583;50.946;6.954;2022-08-19T13:15:41;30.80;26.80
5130;DHT22;2583;50.946;6.954;2022-08-19T13:18:10;30.90;26.00
5130;DHT22;2583;50.946;6.954;2022-08-19T13:20:38;31.10;25.50
5130;DHT22;2583;50.946;6.954;2022-08-19T13:23:07;31.10;24.60
5130;DHT22;2583;50.946;6.954;2022-08-19T13:25:34;30.90;24.10
5130;DHT22;2583;50.946;6.954;2022-08-19T13:28:03;31.40;23.30
5130;DHT22;2583;50.946;6.954;2022-08-19T13:30:31;31.60;23.10
5130;DHT22;2583;50.946;6.954;2022-08-19T13:33:17;31.90;23.10
5130;DHT22;2583;50.946;6.954;2022-08-19T13:35:47;31.80;21.70
5130;DHT22;2583;50.946;6.954;2022-08-19T13:38:20;32.00;21.50
5130;DHT22;2583;50.946;6.954;2022-08-19T13:40:48;32.00;21.60
5130;DHT22;2583;50.946;6.954;2022-08-19T13:43:16;31.60;21.50
5130;DHT22;2583;50.946;6.954;2022-08-19T13:45:53;31.80;20.90
5130;DHT22;2583;50.946;6.954;2022-08-19T13:48:23;31.90;20.80
5130;DHT22;2583;50.946;6.954;2022-08-19T13:50:50;31.90;20.10
5130;DHT22;2583;50.946;6.954;2022-08-19T13:53:17;32.30;20.70
5130;DHT22;2583;50.946;6.954;2022-08-19T13:55:44;33.10;19.50
5130;DHT22;2583;50.946;6.954;2022-08-19T13:58:12;32.80;19.10
5130;DHT22;2583;50.946;6.954;2022-08-19T14:00:42;33.10;18.40
5130;DHT22;2583;50.946;6.954;2022-08-19T14:03:10;33.30;17.70
5130;DHT22;2583;50.946;6.954;2022-08-19T14:05:38;33.80;17.30
5130;DHT22;2583;50.946;6.954;2022-08-19T14:08:05;33.90;17.50
5130;DHT22;2583;50.946;6.954;2022-08-19T14:10:32;33.60;17.60
5130;DHT22;2583;50.946;6.954;2022-08-19T14:13:01;33.70;17.10
5130;DHT22;2583;50.946;6.954;2022-08-19T14:15:29;33.90;16.30
5130;DHT22;2583;50.946;6.954;2022-08-19T14:17:56;34.30;16.60
5130;DHT22;2583;50.946;6.954;2022-08-19T14:20:23;34.00;16.40
5130;DHT22;2583;50.946;6.954;2022-08-19T14:22:52;33.70;16.80
5130;DHT22;2583;50.946;6.954;2022-08-19T14:25:23;32.80;17.50
5130;DHT22;2583;50.946;6.954;2022-08-19T14:27:50;31.90;18.10
5130;DHT22;2583;50.946;6.954;2022-08-19T14:30:24;31.10;19.20
5130;DHT22;2583;50.946;6.954;2022-08-19T14:32:54;30.70;20.10
5130;DHT22;2583;50.946;6.954;2022-08-19T14:35:21;30.20;21.50
5130;DHT22;2583;50.946;6.954;2022-08-19T14:37:49;30.10;22.00
5130;DHT22;2583;50.946;6.954;2022-08-19T14:40:18;29.90;22.20
5130;DHT22;2583;50.946;6.954;2022-08-19T14:42:47;29.60;22.50
5130;DHT22;2583;50.946;6.954;2022-08-19T14:45:14;29.50;22.60
5130;DHT22;2583;50.946;6.954;2022-08-19T14:47:41;29.30;22.60
5130;DHT22;2583;50.946;6.954;2022-08-19T14:50:11;29.20;22.50
5130;DHT22;2583;50.946;6.954;2022-08-19T14:52:45;29.30;22.10
5130;DHT22;2583;50.946;6.954;2022-08-19T14:55:13;29.20;22.00
5130;DHT22;2583;50.946;6.954;2022-08-19T14:57:41;29.20;22.10
5130;DHT22;2583;50.946;6.954;2022-08-19T15:00:09;29.10;22.60
5130;DHT22;2583;50.946;6.954;2022-08-19T15:02:40;29.10;23.30
5130;DHT22;2583;50.946;6.954;2022-08-19T15:05:08;29.00;22.80
5130;DHT22;2583;50.946;6.954;2022-08-19T15:07:35;28.70;22.70
5130;DHT22;2583;50.946;6.954;2022-08-19T15:10:04;28.80;22.40
5130;DHT22;2583;50.946;6.954;2022-08-19T15:12:37;28.70;22.40
5130;DHT22;2583;50.946;6.954;2022-08-19T15:15:12;28.60;22.10
5130;DHT22;2583;50.946;6.954;2022-08-19T15:17:40;28.60;22.10
5130;DHT22;2583;50.946;6.954;2022-08-19T15:20:15;28.60;22.20
5130;DHT22;2583;50.946;6.954;2022-08-19T15:22:42;28.60;22.30
5130;DHT22;2583;50.946;6.954;2022-08-19T15:25:12;28.50;22.60
5130;DHT22;2583;50.946;6.954;2022-08-19T15:27:40;28.50;22.60
5130;DHT22;2583;50.946;6.954;2022-08-19T15:30:08;28.60;22.60
5130;DHT22;2583;50.946;6.954;2022-08-19T15:32:37;28.60;22.40
5130;DHT22;2583;50.946;6.954;2022-08-19T15:35:05;28.50;22.40
5130;DHT22;2583;50.946;6.954;2022-08-19T15:37:32;28.40;22.10
5130;DHT22;2583;50.946;6.954;2022-08-19T15:40:04;28.50;22.40
5130;DHT22;2583;50.946;6.954;2022-08-19T15:42:32;28.60;22.30
5130;DHT22;2583;50.946;6.954;2022-08-19T15:44:59;28.70;22.30
5130;DHT22;2583;50.946;6.954;2022-08-19T15:47:28;28.80;22.40
5130;DHT22;2583;50.946;6.954;2022-08-19T15:50:08;28.70;22.70
5130;DHT22;2583;50.946;6.954;2022-08-19T15:52:47;28.60;22.90
5130;DHT22;2583;50.946;6.954;2022-08-19T15:55:44;28.60;23.40
5130;DHT22;2583;50.946;6.954;2022-08-19T15:58:13;28.40;24.00
5130;DHT22;2583;50.946;6.954;2022-08-19T16:01:00;28.20;24.40
5130;DHT22;2583;50.946;6.954;2022-08-19T16:03:51;28.00;24.90
5130;DHT22;2583;50.946;6.954;2022-08-19T16:06:48;27.80;25.30
5130;DHT22;2583;50.946;6.954;2022-08-19T16:09:16;27.80;25.90
5130;DHT22;2583;50.946;6.954;2022-08-19T16:11:44;27.80;26.20
5130;DHT22;2583;50.946;6.954;2022-08-19T16:14:23;27.60;26.70
5130;DHT22;2583;50.946;6.954;2022-08-19T16:16:50;27.60;26.80
5130;DHT22;2583;50.946;6.954;2022-08-19T16:19:19;27.50;27.20
5130;DHT22;2583;50.946;6.954;2022-08-19T16:21:48;27.30;27.80
5130;DHT22;2583;50.946;6.954;2022-08-19T16:24:17;27.20;28.20
5130;DHT22;2583;50.946;6.954;2022-08-19T16:26:45;27.00;28.60
5130;DHT22;2583;50.946;6.954;2022-08-19T16:29:13;27.00;28.90
5130;DHT22;2583;50.946;6.954;2022-08-19T16:32:01;26.90;29.20
5130;DHT22;2583;50.946;6.954;2022-08-19T16:34:29;26.80;29.50
5130;DHT22;2583;50.946;6.954;2022-08-19T16:36:56;26.80;29.60
5130;DHT22;2583;50.946;6.954;2022-08-19T16:39:23;26.80;29.90